As Victoria — A8SO7 — position and weather

sailwx.info

Track history (hours):
 
Tides and Currents Weather Stations Pressure Air Temp Water Temp Dewpoint Dewpoint Depression Visibility Wind Speed Wind Dir Waves Ship Positions

As Victoria

Last reported at 2016-Dec-24 17:28 UTC. Time now 2017-Feb-26 19:07 UTC.
Position S 29°33' E 031°59'.
Warning: this ship's position is months out of date.

Length 190 m; draft 7.1 m.

MMSI: 636091769.

Date/timePositionNaut miles runAvg speedWind from/ knotsBaromVisibWave heightAir tempDewpointWater temp
2016-Dec-24 17:28S 29°33' E 031°59'5 6.0
2016-Dec-24 16:33S 29°36' E 031°53'6 5.8
2016-Dec-24 15:33S 29°39' E 031°48'6 5.8
2016-Dec-24 14:33S 29°41' E 031°41'7 6.6
2016-Dec-24 13:33S 29°43' E 031°34'8 8.0
2016-Dec-24 12:33S 29°45' E 031°25'1010.1
2016-Dec-24 11:33S 29°48' E 031°14'1110.6
2016-Dec-24 10:33S 29°52' E 031°03'3 2.6
2016-Dec-24 09:32S 29°53' E 031°00'0 0.0
2016-Dec-24 08:32S 29°53' E 031°00'0 0.0
2016-Dec-24 07:32S 29°53' E 031°00'0 0.0
2016-Dec-24 06:29S 29°53' E 031°00'0 0.0
2016-Dec-24 05:32S 29°53' E 031°00'0 0.0
2016-Dec-24 04:32S 29°53' E 031°00'0 0.0
2016-Dec-24 03:32S 29°53' E 031°00'0 0.0
2016-Dec-24 02:32S 29°53' E 031°00'0 0.0
2016-Dec-24 01:32S 29°53' E 031°00'0 0.0
2016-Dec-24 00:32S 29°53' E 031°00'0 0.0
2016-Dec-23 23:32S 29°53' E 031°00'0 0.0
2016-Dec-23 22:32S 29°53' E 031°00'0 0.0
2016-Dec-23 21:32S 29°53' E 031°00'0 0.0
2016-Dec-23 20:32S 29°53' E 031°00'0 0.0
2016-Dec-23 19:32S 29°53' E 031°00'0 0.0
2016-Dec-23 18:32S 29°53' E 031°00'0 0.0
2016-Dec-23 17:32S 29°53' E 031°00'0 0.0
2016-Dec-23 16:32S 29°53' E 031°00'0 0.0
2016-Dec-23 15:32S 29°53' E 031°00'0 0.0
2016-Dec-23 14:32S 29°53' E 031°00'0 0.0
2016-Dec-23 13:29S 29°53' E 031°00'0 0.0
2016-Dec-23 12:32S 29°53' E 031°00'0 0.0
2016-Dec-23 11:32S 29°53' E 031°00'0 0.0
2016-Dec-23 10:32S 29°53' E 031°00'0 0.0
2016-Dec-23 09:32S 29°53' E 031°00'0 0.0
2016-Dec-23 08:32S 29°53' E 031°00'0 0.0
2016-Dec-23 07:32S 29°53' E 031°00'0 0.0
2016-Dec-23 06:32S 29°53' E 031°00'0 0.0
2016-Dec-23 05:32S 29°53' E 031°00'0 0.0
2016-Dec-23 04:32S 29°53' E 031°00'0 0.0
2016-Dec-23 03:32S 29°53' E 031°00'0 0.0
2016-Dec-23 02:32S 29°53' E 031°00'0 0.0
2016-Dec-23 01:32S 29°53' E 031°00'0 0.0
2016-Dec-23 00:32S 29°53' E 031°00'0 0.0
2016-Dec-22 23:32S 29°53' E 031°00'0 0.0
2016-Dec-22 22:32S 29°53' E 031°00'0 0.0
2016-Dec-22 21:32S 29°53' E 031°00'0 0.0
2016-Dec-22 20:32S 29°53' E 031°00'0 0.0
2016-Dec-22 19:32S 29°53' E 031°00'0 0.0
2016-Dec-22 18:32S 29°53' E 031°00'0 0.0
2016-Dec-22 17:32S 29°53' E 031°00'0 0.0
2016-Dec-22 16:32S 29°53' E 031°00'0 0.0
2016-Dec-22 15:32S 29°53' E 031°00'0 0.0
2016-Dec-22 14:32S 29°53' E 031°00'0 0.0
2016-Dec-22 13:32S 29°53' E 031°00'0 0.0
2016-Dec-22 12:32S 29°53' E 031°00'0 0.0
2016-Dec-22 11:32S 29°53' E 031°00'0 0.0
2016-Dec-22 10:32S 29°53' E 031°00'0 0.0
2016-Dec-22 09:32S 29°53' E 031°00'0 0.0
2016-Dec-22 08:32S 29°53' E 031°00'0 0.0
2016-Dec-22 07:32S 29°53' E 031°00'0 0.0
2016-Dec-22 06:32S 29°53' E 031°00'0 0.0
2016-Dec-22 05:32S 29°53' E 031°00'0 0.0
2016-Dec-22 04:32S 29°53' E 031°00'0 0.0
2016-Dec-22 03:32S 29°53' E 031°00'0 0.0
2016-Dec-22 02:32S 29°53' E 031°00'0 0.0
2016-Dec-22 01:29S 29°53' E 031°00'0 0.0
2016-Dec-22 00:32S 29°53' E 031°00'0 0.0
2016-Dec-21 23:32S 29°53' E 031°00'0 0.0
2016-Dec-21 22:29S 29°53' E 031°00'0 0.0
2016-Dec-21 21:32S 29°53' E 031°00'0 0.0
2016-Dec-21 20:32S 29°53' E 031°00'0 0.0
2016-Dec-21 19:32S 29°53' E 031°00'0 0.0
2016-Dec-21 18:32S 29°53' E 031°00'0 0.0
2016-Dec-21 17:32S 29°53' E 031°00'0 0.0
2016-Dec-21 16:29S 29°53' E 031°00'0 0.0
2016-Dec-21 15:32S 29°53' E 031°00'0 0.0
2016-Dec-21 14:32S 29°53' E 031°00'0 0.0
2016-Dec-21 13:29S 29°53' E 031°00'0 0.0
2016-Dec-21 12:29S 29°53' E 031°00'0 0.0
2016-Dec-21 11:32S 29°53' E 031°00'0 0.0
2016-Dec-21 10:29S 29°53' E 031°00'0 0.0
2016-Dec-21 09:32S 29°53' E 031°00'0 0.0
2016-Dec-21 08:32S 29°53' E 031°00'0 0.0
2016-Dec-21 07:29S 29°53' E 031°00'0 0.0
2016-Dec-21 06:32S 29°53' E 031°00'0 0.0
2016-Dec-21 05:32S 29°53' E 031°00'0 0.0
2016-Dec-21 04:29S 29°53' E 031°00'0 0.0
2016-Dec-21 03:32S 29°53' E 031°00'0 0.0
2016-Dec-21 02:32S 29°53' E 031°00'0 0.0
2016-Dec-21 01:29S 29°53' E 031°00'0 0.0
2016-Dec-21 00:32S 29°53' E 031°00'0 0.0
2016-Dec-20 23:32S 29°53' E 031°00'0 0.0
2016-Dec-20 22:29S 29°53' E 031°00'0 0.0
2016-Dec-20 21:32S 29°53' E 031°00'0 0.0
2016-Dec-20 20:32S 29°53' E 031°00'0 0.0
2016-Dec-20 19:32S 29°53' E 031°00'0 0.0
2016-Dec-20 18:32S 29°53' E 031°00'0 0.0
2016-Dec-20 17:32S 29°53' E 031°00'0 0.0
2016-Dec-20 16:32S 29°53' E 031°00'0 0.0
2016-Dec-20 15:32S 29°53' E 031°00'0 0.0
2016-Dec-20 14:32S 29°53' E 031°00'0 0.0
2016-Dec-20 13:32S 29°53' E 031°00'0 0.0
2016-Dec-20 12:32S 29°53' E 031°00'0 0.0
2016-Dec-20 11:32S 29°53' E 031°00'0 0.0
2016-Dec-20 10:32S 29°53' E 031°00'0 0.0
2016-Dec-20 09:32S 29°53' E 031°00'0 0.0
2016-Dec-20 08:29S 29°53' E 031°00'0 0.0
2016-Dec-20 07:32S 29°53' E 031°00'0 0.0
2016-Dec-20 06:32S 29°53' E 031°00'0 0.0
2016-Dec-20 05:32S 29°53' E 031°00'0 0.0
2016-Dec-20 04:32S 29°53' E 031°00'0 0.0
2016-Dec-20 03:32S 29°53' E 031°00'0 0.0
2016-Dec-20 02:32S 29°53' E 031°00'0 0.0
2016-Dec-20 01:32S 29°53' E 031°00'0 0.0
2016-Dec-20 00:32S 29°53' E 031°00'0 0.0
2016-Dec-19 23:32S 29°53' E 031°00'0 0.0
2016-Dec-19 22:32S 29°53' E 031°00'0 0.0
2016-Dec-19 21:32S 29°53' E 031°00'0 0.0
2016-Dec-19 20:29S 29°53' E 031°00'0 0.0
2016-Dec-19 19:32S 29°53' E 031°00'0 0.0
2016-Dec-19 18:32S 29°53' E 031°00'0 0.0
2016-Dec-19 17:32S 29°53' E 031°00'0 0.0
2016-Dec-19 16:32S 29°53' E 031°00'0 0.0
2016-Dec-19 15:32S 29°53' E 031°00'0 0.0
2016-Dec-19 14:32S 29°53' E 031°00'0 0.0
2016-Dec-19 13:32S 29°53' E 031°00'0 0.0
2016-Dec-19 12:32S 29°53' E 031°00'0 0.0
2016-Dec-19 11:32S 29°53' E 031°00'0 0.0
2016-Dec-19 10:32S 29°53' E 031°00'0 0.0
2016-Dec-19 09:32S 29°53' E 031°00'0 0.0
2016-Dec-19 08:32S 29°53' E 031°00'0 0.0
2016-Dec-19 07:32S 29°53' E 031°00'0 0.0
2016-Dec-19 06:32S 29°53' E 031°00'0 0.0
2016-Dec-19 05:32S 29°53' E 031°00'0 0.0
2016-Dec-19 04:32S 29°53' E 031°00'0 0.0
2016-Dec-19 03:32S 29°53' E 031°00'0 0.0
2016-Dec-19 02:32S 29°53' E 031°00'0 0.0
2016-Dec-19 01:32S 29°53' E 031°00'0 0.0
2016-Dec-19 00:32S 29°53' E 031°00'0 0.0
2016-Dec-18 23:32S 29°53' E 031°00'0 0.0
2016-Dec-18 22:32S 29°53' E 031°00'0 0.0
2016-Dec-18 21:32S 29°53' E 031°00'0 0.0
2016-Dec-18 20:32S 29°53' E 031°00'0 0.0
2016-Dec-18 19:32S 29°53' E 031°00'0 0.0
2016-Dec-18 18:32S 29°53' E 031°00'0 0.0
2016-Dec-18 17:32S 29°53' E 031°00'0 0.0
2016-Dec-18 16:32S 29°53' E 031°00'0 0.0
2016-Dec-18 15:32S 29°53' E 031°00'0 0.0
2016-Dec-18 14:32S 29°53' E 031°00'0 0.0
2016-Dec-18 13:33S 29°53' E 031°00'3 3.2
2016-Dec-18 12:33S 29°52' E 031°04'7 7.0
2016-Dec-18 11:33S 29°46' E 031°08'0 0.1
2016-Dec-18 10:33S 29°46' E 031°08'0 0.1
2016-Dec-18 09:33S 29°46' E 031°08'0 0.0
2016-Dec-18 08:33S 29°46' E 031°08'0 0.0
2016-Dec-18 07:33S 29°46' E 031°08'0 0.0
2016-Dec-18 06:33S 29°46' E 031°08'0 0.0
2016-Dec-18 05:33S 29°46' E 031°08'0 0.0
2016-Dec-18 04:33S 29°46' E 031°08'0 0.0
2016-Dec-18 03:30S 29°46' E 031°08'0 0.0
2016-Dec-18 02:33S 29°46' E 031°08'0 0.1
2016-Dec-18 01:33S 29°45' E 031°08'0 0.0
2016-Dec-18 00:33S 29°45' E 031°08'0 0.0
2016-Dec-17 23:33S 29°46' E 031°08'0 0.1
2016-Dec-17 22:30S 29°45' E 031°08'0 0.0
2016-Dec-17 21:33S 29°45' E 031°08'0 0.0
2016-Dec-17 20:33S 29°45' E 031°08'0 0.0
2016-Dec-17 19:33S 29°46' E 031°08'0 0.0
2016-Dec-17 18:33S 29°46' E 031°08'0 0.0
2016-Dec-17 17:33S 29°46' E 031°08'0 0.0
2016-Dec-17 16:33S 29°46' E 031°08'0 0.0
2016-Dec-17 15:33S 29°46' E 031°08'0 0.0
2016-Dec-17 14:33S 29°46' E 031°08'0 0.0
2016-Dec-17 13:33S 29°46' E 031°08'0 0.0
2016-Dec-17 12:33S 29°46' E 031°08'0 0.0
2016-Dec-17 11:33S 29°46' E 031°08'0 0.0
2016-Dec-17 10:33S 29°46' E 031°08'0 0.0
2016-Dec-17 09:33S 29°46' E 031°08'0 0.0
2016-Dec-17 08:30S 29°46' E 031°08'0 0.0
2016-Dec-17 07:33S 29°46' E 031°08'0 0.0
2016-Dec-17 06:33S 29°46' E 031°08'0 0.1
2016-Dec-17 05:30S 29°46' E 031°08'0 0.0
2016-Dec-17 04:33S 29°45' E 031°08'0 0.1
2016-Dec-17 03:33S 29°46' E 031°08'0 0.0
2016-Dec-17 02:30S 29°46' E 031°08'0 0.1
2016-Dec-17 01:33S 29°45' E 031°08'0 0.0
2016-Dec-17 00:33S 29°45' E 031°08'0 0.0
2016-Dec-16 23:30S 29°45' E 031°08'0 0.0
2016-Dec-16 22:33S 29°45' E 031°08'0 0.0
2016-Dec-16 21:33S 29°45' E 031°08'0 0.0
2016-Dec-16 20:30S 29°45' E 031°08'0 0.0
2016-Dec-16 19:33S 29°45' E 031°08'0 0.0
2016-Dec-16 18:33S 29°45' E 031°08'0 0.0
2016-Dec-16 17:30S 29°45' E 031°08'0 0.0
2016-Dec-16 16:33S 29°45' E 031°08'0 0.0
2016-Dec-16 15:33S 29°45' E 031°08'0 0.0
2016-Dec-16 14:30S 29°45' E 031°08'0 0.0
2016-Dec-16 13:33S 29°45' E 031°08'0 0.0
2016-Dec-16 12:33S 29°45' E 031°08'0 0.0
2016-Dec-16 11:33S 29°45' E 031°08'0 0.0
2016-Dec-16 10:33S 29°45' E 031°08'0 0.1
2016-Dec-16 09:33S 29°45' E 031°08'0 0.0
2016-Dec-16 08:33S 29°45' E 031°08'0 0.0
2016-Dec-16 07:33S 29°45' E 031°08'0 0.0
2016-Dec-16 06:33S 29°45' E 031°08'0 0.0
2016-Dec-16 05:33S 29°45' E 031°08'0 0.0
2016-Dec-16 04:30S 29°45' E 031°08'0 0.0
2016-Dec-16 03:33S 29°45' E 031°08'0 0.0
2016-Dec-16 02:33S 29°45' E 031°08'0 0.0
2016-Dec-16 01:33S 29°45' E 031°08'0 0.0
2016-Dec-16 00:30S 29°45' E 031°08'0 0.0
2016-Dec-15 23:33S 29°45' E 031°08'0 0.1
2016-Dec-15 22:33S 29°45' E 031°08'0 0.0
2016-Dec-15 21:33S 29°45' E 031°08'0 0.0
2016-Dec-15 20:33S 29°45' E 031°08'0 0.3
2016-Dec-15 19:32S 29°46' E 031°08'0 0.1
2016-Dec-15 18:32S 29°46' E 031°08'0 0.0
2016-Dec-15 17:32S 29°46' E 031°08'0 0.0
2016-Dec-15 16:33S 29°46' E 031°08'0 0.0
2016-Dec-15 15:32S 29°46' E 031°08'0 0.0
2016-Dec-15 14:32S 29°46' E 031°08'0 0.0
2016-Dec-15 13:32S 29°46' E 031°08'0 0.0
2016-Dec-15 12:32S 29°46' E 031°08'0 0.0
2016-Dec-15 11:32S 29°46' E 031°08'0 0.0
2016-Dec-15 10:32S 29°46' E 031°08'0 0.0
2016-Dec-15 09:32S 29°46' E 031°08'0 0.0
2016-Dec-15 08:32S 29°46' E 031°08'0 0.0
2016-Dec-15 07:32S 29°46' E 031°08'0 0.0
2016-Dec-15 06:32S 29°46' E 031°08'0 0.0
2016-Dec-15 05:32S 29°46' E 031°08'0 0.0
2016-Dec-15 04:32S 29°46' E 031°08'0 0.0
2016-Dec-15 03:32S 29°46' E 031°08'0 0.0
2016-Dec-15 02:32S 29°46' E 031°08'0 0.0
2016-Dec-15 01:32S 29°46' E 031°08'0 0.0
2016-Dec-15 00:32S 29°46' E 031°08'0 0.0
2016-Dec-14 23:32S 29°46' E 031°08'0 0.0
2016-Dec-14 22:32S 29°46' E 031°08'0 0.0
2016-Dec-14 21:32S 29°46' E 031°08'0 0.1
2016-Dec-14 20:32S 29°46' E 031°08'0 0.1
2016-Dec-14 19:32S 29°46' E 031°08'0 0.0
2016-Dec-14 18:32S 29°46' E 031°08'0 0.0
2016-Dec-14 17:32S 29°46' E 031°08'  
Track history (hours):
 
Tides and Currents Weather Stations Pressure Air Temp Water Temp Dewpoint Dewpoint Depression Visibility Wind Speed Wind Dir Waves Ship Positions

As Victoria

Last reported at 2016-Dec-24 17:28 UTC. Time now 2017-Feb-26 19:07 UTC.
Position S 29°33' E 031°59'.
Warning: this ship's position is months out of date.

Length 190 m; draft 7.1 m.

MMSI: 636091769.

Date/timePositionNaut miles runAvg speedWind from/ knotsBaromVisibWave heightAir tempDewpointWater temp
2016-Dec-24 17:28S 29°33' E 031°59'5 6.0
2016-Dec-24 16:33S 29°36' E 031°53'6 5.8
2016-Dec-24 15:33S 29°39' E 031°48'6 5.8
2016-Dec-24 14:33S 29°41' E 031°41'7 6.6
2016-Dec-24 13:33S 29°43' E 031°34'8 8.0
2016-Dec-24 12:33S 29°45' E 031°25'1010.1
2016-Dec-24 11:33S 29°48' E 031°14'1110.6
2016-Dec-24 10:33S 29°52' E 031°03'3 2.6
2016-Dec-24 09:32S 29°53' E 031°00'0 0.0
2016-Dec-24 08:32S 29°53' E 031°00'0 0.0
2016-Dec-24 07:32S 29°53' E 031°00'0 0.0
2016-Dec-24 06:29S 29°53' E 031°00'0 0.0
2016-Dec-24 05:32S 29°53' E 031°00'0 0.0
2016-Dec-24 04:32S 29°53' E 031°00'0 0.0
2016-Dec-24 03:32S 29°53' E 031°00'0 0.0
2016-Dec-24 02:32S 29°53' E 031°00'0 0.0
2016-Dec-24 01:32S 29°53' E 031°00'0 0.0
2016-Dec-24 00:32S 29°53' E 031°00'0 0.0
2016-Dec-23 23:32S 29°53' E 031°00'0 0.0
2016-Dec-23 22:32S 29°53' E 031°00'0 0.0
2016-Dec-23 21:32S 29°53' E 031°00'0 0.0
2016-Dec-23 20:32S 29°53' E 031°00'0 0.0
2016-Dec-23 19:32S 29°53' E 031°00'0 0.0
2016-Dec-23 18:32S 29°53' E 031°00'0 0.0
2016-Dec-23 17:32S 29°53' E 031°00'0 0.0
2016-Dec-23 16:32S 29°53' E 031°00'0 0.0
2016-Dec-23 15:32S 29°53' E 031°00'0 0.0
2016-Dec-23 14:32S 29°53' E 031°00'0 0.0
2016-Dec-23 13:29S 29°53' E 031°00'0 0.0
2016-Dec-23 12:32S 29°53' E 031°00'0 0.0
2016-Dec-23 11:32S 29°53' E 031°00'0 0.0
2016-Dec-23 10:32S 29°53' E 031°00'0 0.0
2016-Dec-23 09:32S 29°53' E 031°00'0 0.0
2016-Dec-23 08:32S 29°53' E 031°00'0 0.0
2016-Dec-23 07:32S 29°53' E 031°00'0 0.0
2016-Dec-23 06:32S 29°53' E 031°00'0 0.0
2016-Dec-23 05:32S 29°53' E 031°00'0 0.0
2016-Dec-23 04:32S 29°53' E 031°00'0 0.0
2016-Dec-23 03:32S 29°53' E 031°00'0 0.0
2016-Dec-23 02:32S 29°53' E 031°00'0 0.0
2016-Dec-23 01:32S 29°53' E 031°00'0 0.0
2016-Dec-23 00:32S 29°53' E 031°00'0 0.0
2016-Dec-22 23:32S 29°53' E 031°00'0 0.0
2016-Dec-22 22:32S 29°53' E 031°00'0 0.0
2016-Dec-22 21:32S 29°53' E 031°00'0 0.0
2016-Dec-22 20:32S 29°53' E 031°00'0 0.0
2016-Dec-22 19:32S 29°53' E 031°00'0 0.0
2016-Dec-22 18:32S 29°53' E 031°00'0 0.0
2016-Dec-22 17:32S 29°53' E 031°00'0 0.0
2016-Dec-22 16:32S 29°53' E 031°00'0 0.0
2016-Dec-22 15:32S 29°53' E 031°00'0 0.0
2016-Dec-22 14:32S 29°53' E 031°00'0 0.0
2016-Dec-22 13:32S 29°53' E 031°00'0 0.0
2016-Dec-22 12:32S 29°53' E 031°00'0 0.0
2016-Dec-22 11:32S 29°53' E 031°00'0 0.0
2016-Dec-22 10:32S 29°53' E 031°00'0 0.0
2016-Dec-22 09:32S 29°53' E 031°00'0 0.0
2016-Dec-22 08:32S 29°53' E 031°00'0 0.0
2016-Dec-22 07:32S 29°53' E 031°00'0 0.0
2016-Dec-22 06:32S 29°53' E 031°00'0 0.0
2016-Dec-22 05:32S 29°53' E 031°00'0 0.0
2016-Dec-22 04:32S 29°53' E 031°00'0 0.0
2016-Dec-22 03:32S 29°53' E 031°00'0 0.0
2016-Dec-22 02:32S 29°53' E 031°00'0 0.0
2016-Dec-22 01:29S 29°53' E 031°00'0 0.0
2016-Dec-22 00:32S 29°53' E 031°00'0 0.0
2016-Dec-21 23:32S 29°53' E 031°00'0 0.0
2016-Dec-21 22:29S 29°53' E 031°00'0 0.0
2016-Dec-21 21:32S 29°53' E 031°00'0 0.0
2016-Dec-21 20:32S 29°53' E 031°00'0 0.0
2016-Dec-21 19:32S 29°53' E 031°00'0 0.0
2016-Dec-21 18:32S 29°53' E 031°00'0 0.0
2016-Dec-21 17:32S 29°53' E 031°00'0 0.0
2016-Dec-21 16:29S 29°53' E 031°00'0 0.0
2016-Dec-21 15:32S 29°53' E 031°00'0 0.0
2016-Dec-21 14:32S 29°53' E 031°00'0 0.0
2016-Dec-21 13:29S 29°53' E 031°00'0 0.0
2016-Dec-21 12:29S 29°53' E 031°00'0 0.0
2016-Dec-21 11:32S 29°53' E 031°00'0 0.0
2016-Dec-21 10:29S 29°53' E 031°00'0 0.0
2016-Dec-21 09:32S 29°53' E 031°00'0 0.0
2016-Dec-21 08:32S 29°53' E 031°00'0 0.0
2016-Dec-21 07:29S 29°53' E 031°00'0 0.0
2016-Dec-21 06:32S 29°53' E 031°00'0 0.0
2016-Dec-21 05:32S 29°53' E 031°00'0 0.0
2016-Dec-21 04:29S 29°53' E 031°00'0 0.0
2016-Dec-21 03:32S 29°53' E 031°00'0 0.0
2016-Dec-21 02:32S 29°53' E 031°00'0 0.0
2016-Dec-21 01:29S 29°53' E 031°00'0 0.0
2016-Dec-21 00:32S 29°53' E 031°00'0 0.0
2016-Dec-20 23:32S 29°53' E 031°00'0 0.0
2016-Dec-20 22:29S 29°53' E 031°00'0 0.0
2016-Dec-20 21:32S 29°53' E 031°00'0 0.0
2016-Dec-20 20:32S 29°53' E 031°00'0 0.0
2016-Dec-20 19:32S 29°53' E 031°00'0 0.0
2016-Dec-20 18:32S 29°53' E 031°00'0 0.0
2016-Dec-20 17:32S 29°53' E 031°00'0 0.0
2016-Dec-20 16:32S 29°53' E 031°00'0 0.0
2016-Dec-20 15:32S 29°53' E 031°00'0 0.0
2016-Dec-20 14:32S 29°53' E 031°00'0 0.0
2016-Dec-20 13:32S 29°53' E 031°00'0 0.0
2016-Dec-20 12:32S 29°53' E 031°00'0 0.0
2016-Dec-20 11:32S 29°53' E 031°00'0 0.0
2016-Dec-20 10:32S 29°53' E 031°00'0 0.0
2016-Dec-20 09:32S 29°53' E 031°00'0 0.0
2016-Dec-20 08:29S 29°53' E 031°00'0 0.0
2016-Dec-20 07:32S 29°53' E 031°00'0 0.0
2016-Dec-20 06:32S 29°53' E 031°00'0 0.0
2016-Dec-20 05:32S 29°53' E 031°00'0 0.0
2016-Dec-20 04:32S 29°53' E 031°00'0 0.0
2016-Dec-20 03:32S 29°53' E 031°00'0 0.0
2016-Dec-20 02:32S 29°53' E 031°00'0 0.0
2016-Dec-20 01:32S 29°53' E 031°00'0 0.0
2016-Dec-20 00:32S 29°53' E 031°00'0 0.0
2016-Dec-19 23:32S 29°53' E 031°00'0 0.0
2016-Dec-19 22:32S 29°53' E 031°00'0 0.0
2016-Dec-19 21:32S 29°53' E 031°00'0 0.0
2016-Dec-19 20:29S 29°53' E 031°00'0 0.0
2016-Dec-19 19:32S 29°53' E 031°00'0 0.0
2016-Dec-19 18:32S 29°53' E 031°00'0 0.0
2016-Dec-19 17:32S 29°53' E 031°00'0 0.0
2016-Dec-19 16:32S 29°53' E 031°00'0 0.0
2016-Dec-19 15:32S 29°53' E 031°00'0 0.0
2016-Dec-19 14:32S 29°53' E 031°00'0 0.0
2016-Dec-19 13:32S 29°53' E 031°00'0 0.0
2016-Dec-19 12:32S 29°53' E 031°00'0 0.0
2016-Dec-19 11:32S 29°53' E 031°00'0 0.0
2016-Dec-19 10:32S 29°53' E 031°00'0 0.0
2016-Dec-19 09:32S 29°53' E 031°00'0 0.0
2016-Dec-19 08:32S 29°53' E 031°00'0 0.0
2016-Dec-19 07:32S 29°53' E 031°00'0 0.0
2016-Dec-19 06:32S 29°53' E 031°00'0 0.0
2016-Dec-19 05:32S 29°53' E 031°00'0 0.0
2016-Dec-19 04:32S 29°53' E 031°00'0 0.0
2016-Dec-19 03:32S 29°53' E 031°00'0 0.0
2016-Dec-19 02:32S 29°53' E 031°00'0 0.0
2016-Dec-19 01:32S 29°53' E 031°00'0 0.0
2016-Dec-19 00:32S 29°53' E 031°00'0 0.0
2016-Dec-18 23:32S 29°53' E 031°00'0 0.0
2016-Dec-18 22:32S 29°53' E 031°00'0 0.0
2016-Dec-18 21:32S 29°53' E 031°00'0 0.0
2016-Dec-18 20:32S 29°53' E 031°00'0 0.0
2016-Dec-18 19:32S 29°53' E 031°00'0 0.0
2016-Dec-18 18:32S 29°53' E 031°00'0 0.0
2016-Dec-18 17:32S 29°53' E 031°00'0 0.0
2016-Dec-18 16:32S 29°53' E 031°00'0 0.0
2016-Dec-18 15:32S 29°53' E 031°00'0 0.0
2016-Dec-18 14:32S 29°53' E 031°00'0 0.0
2016-Dec-18 13:33S 29°53' E 031°00'3 3.2
2016-Dec-18 12:33S 29°52' E 031°04'7 7.0
2016-Dec-18 11:33S 29°46' E 031°08'0 0.1
2016-Dec-18 10:33S 29°46' E 031°08'0 0.1
2016-Dec-18 09:33S 29°46' E 031°08'0 0.0
2016-Dec-18 08:33S 29°46' E 031°08'0 0.0
2016-Dec-18 07:33S 29°46' E 031°08'0 0.0
2016-Dec-18 06:33S 29°46' E 031°08'0 0.0
2016-Dec-18 05:33S 29°46' E 031°08'0 0.0
2016-Dec-18 04:33S 29°46' E 031°08'0 0.0
2016-Dec-18 03:30S 29°46' E 031°08'0 0.0
2016-Dec-18 02:33S 29°46' E 031°08'0 0.1
2016-Dec-18 01:33S 29°45' E 031°08'0 0.0
2016-Dec-18 00:33S 29°45' E 031°08'0 0.0
2016-Dec-17 23:33S 29°46' E 031°08'0 0.1
2016-Dec-17 22:30S 29°45' E 031°08'0 0.0
2016-Dec-17 21:33S 29°45' E 031°08'0 0.0
2016-Dec-17 20:33S 29°45' E 031°08'0 0.0
2016-Dec-17 19:33S 29°46' E 031°08'0 0.0
2016-Dec-17 18:33S 29°46' E 031°08'0 0.0
2016-Dec-17 17:33S 29°46' E 031°08'0 0.0
2016-Dec-17 16:33S 29°46' E 031°08'0 0.0
2016-Dec-17 15:33S 29°46' E 031°08'0 0.0
2016-Dec-17 14:33S 29°46' E 031°08'0 0.0
2016-Dec-17 13:33S 29°46' E 031°08'0 0.0
2016-Dec-17 12:33S 29°46' E 031°08'0 0.0
2016-Dec-17 11:33S 29°46' E 031°08'0 0.0
2016-Dec-17 10:33S 29°46' E 031°08'0 0.0
2016-Dec-17 09:33S 29°46' E 031°08'0 0.0
2016-Dec-17 08:30S 29°46' E 031°08'0 0.0
2016-Dec-17 07:33S 29°46' E 031°08'0 0.0
2016-Dec-17 06:33S 29°46' E 031°08'0 0.1
2016-Dec-17 05:30S 29°46' E 031°08'0 0.0
2016-Dec-17 04:33S 29°45' E 031°08'0 0.1
2016-Dec-17 03:33S 29°46' E 031°08'0 0.0
2016-Dec-17 02:30S 29°46' E 031°08'0 0.1
2016-Dec-17 01:33S 29°45' E 031°08'0 0.0
2016-Dec-17 00:33S 29°45' E 031°08'0 0.0
2016-Dec-16 23:30S 29°45' E 031°08'0 0.0
2016-Dec-16 22:33S 29°45' E 031°08'0 0.0
2016-Dec-16 21:33S 29°45' E 031°08'0 0.0
2016-Dec-16 20:30S 29°45' E 031°08'0 0.0
2016-Dec-16 19:33S 29°45' E 031°08'0 0.0
2016-Dec-16 18:33S 29°45' E 031°08'0 0.0
2016-Dec-16 17:30S 29°45' E 031°08'0 0.0
2016-Dec-16 16:33S 29°45' E 031°08'0 0.0
2016-Dec-16 15:33S 29°45' E 031°08'0 0.0
2016-Dec-16 14:30S 29°45' E 031°08'0 0.0
2016-Dec-16 13:33S 29°45' E 031°08'0 0.0
2016-Dec-16 12:33S 29°45' E 031°08'0 0.0
2016-Dec-16 11:33S 29°45' E 031°08'0 0.0
2016-Dec-16 10:33S 29°45' E 031°08'0 0.1
2016-Dec-16 09:33S 29°45' E 031°08'0 0.0
2016-Dec-16 08:33S 29°45' E 031°08'0 0.0
2016-Dec-16 07:33S 29°45' E 031°08'0 0.0
2016-Dec-16 06:33S 29°45' E 031°08'0 0.0
2016-Dec-16 05:33S 29°45' E 031°08'0 0.0
2016-Dec-16 04:30S 29°45' E 031°08'0 0.0
2016-Dec-16 03:33S 29°45' E 031°08'0 0.0
2016-Dec-16 02:33S 29°45' E 031°08'0 0.0
2016-Dec-16 01:33S 29°45' E 031°08'0 0.0
2016-Dec-16 00:30S 29°45' E 031°08'0 0.0
2016-Dec-15 23:33S 29°45' E 031°08'0 0.1
2016-Dec-15 22:33S 29°45' E 031°08'0 0.0
2016-Dec-15 21:33S 29°45' E 031°08'0 0.0
2016-Dec-15 20:33S 29°45' E 031°08'0 0.3
2016-Dec-15 19:32S 29°46' E 031°08'0 0.1
2016-Dec-15 18:32S 29°46' E 031°08'0 0.0
2016-Dec-15 17:32S 29°46' E 031°08'0 0.0
2016-Dec-15 16:33S 29°46' E 031°08'0 0.0
2016-Dec-15 15:32S 29°46' E 031°08'0 0.0
2016-Dec-15 14:32S 29°46' E 031°08'0 0.0
2016-Dec-15 13:32S 29°46' E 031°08'0 0.0
2016-Dec-15 12:32S 29°46' E 031°08'0 0.0
2016-Dec-15 11:32S 29°46' E 031°08'0 0.0
2016-Dec-15 10:32S 29°46' E 031°08'0 0.0
2016-Dec-15 09:32S 29°46' E 031°08'0 0.0
2016-Dec-15 08:32S 29°46' E 031°08'0 0.0
2016-Dec-15 07:32S 29°46' E 031°08'0 0.0
2016-Dec-15 06:32S 29°46' E 031°08'0 0.0
2016-Dec-15 05:32S 29°46' E 031°08'0 0.0
2016-Dec-15 04:32S 29°46' E 031°08'0 0.0
2016-Dec-15 03:32S 29°46' E 031°08'0 0.0
2016-Dec-15 02:32S 29°46' E 031°08'0 0.0
2016-Dec-15 01:32S 29°46' E 031°08'0 0.0
2016-Dec-15 00:32S 29°46' E 031°08'0 0.0
2016-Dec-14 23:32S 29°46' E 031°08'0 0.0
2016-Dec-14 22:32S 29°46' E 031°08'0 0.0
2016-Dec-14 21:32S 29°46' E 031°08'0 0.1
2016-Dec-14 20:32S 29°46' E 031°08'0 0.1
2016-Dec-14 19:32S 29°46' E 031°08'0 0.0
2016-Dec-14 18:32S 29°46' E 031°08'0 0.0
2016-Dec-14 17:32S 29°46' E 031°08'  

Dump ship's entire track history